createdAt,value
2023-03-10T10:13:14.721Z,40.96
2023-03-10T10:15:45.325Z,40.99
2023-03-10T10:18:19.704Z,41.23
2023-03-10T10:20:58.622Z,41.21
2023-03-10T10:23:41.009Z,41.10
2023-03-10T10:26:20.045Z,40.96
2023-03-10T10:46:34.105Z,31.48
2023-03-10T10:49:25.424Z,32.76
2023-03-10T10:51:57.099Z,35.16
2023-03-10T10:54:41.776Z,37.36
2023-03-10T10:57:35.325Z,39.25
2023-03-10T11:00:19.332Z,41.36
2023-03-10T11:02:50.351Z,43.07
2023-03-10T11:05:24.722Z,44.15
2023-03-10T11:07:51.767Z,45.18
2023-03-10T11:10:25.843Z,46.19
2023-03-10T11:13:19.385Z,46.70
2023-03-10T11:15:52.814Z,47.61
2023-03-10T11:18:45.260Z,48.09
2023-03-10T11:21:30.368Z,48.58
2023-03-10T11:24:20.579Z,49.15
2023-03-10T11:26:58.363Z,49.60
2023-03-10T11:29:33.934Z,50.18
2023-03-10T11:32:26.413Z,50.58
2023-03-10T11:34:57.745Z,50.73
2023-03-10T11:37:39.773Z,50.94
2023-03-10T11:40:27.210Z,51.00
2023-03-10T11:43:09.162Z,51.06
2023-03-10T11:45:52.137Z,51.39
2023-03-10T11:48:29.174Z,51.33
2023-03-10T11:50:59.684Z,51.34
2023-03-10T11:53:49.413Z,51.36
2023-03-10T11:56:19.842Z,50.89
2023-03-10T11:58:51.754Z,50.74
2023-03-10T12:01:42.827Z,50.98
2023-03-10T12:04:22.463Z,50.25
2023-03-10T12:06:56.597Z,50.60
2023-03-10T12:09:36.182Z,50.60
2023-03-10T12:12:03.035Z,50.67
2023-03-10T12:14:32.338Z,50.72
2023-03-10T12:17:00.576Z,50.97
2023-03-10T12:19:27.661Z,51.30
2023-03-10T12:22:41.707Z,51.15
2023-03-10T12:25:29.588Z,51.07
2023-03-10T12:28:16.174Z,51.39
2023-03-10T12:31:01.275Z,51.72
2023-03-10T12:33:33.570Z,51.98
2023-03-10T12:36:08.612Z,52.40
2023-03-10T12:38:59.685Z,52.53
2023-03-10T12:41:26.624Z,53.20
2023-03-10T12:43:59.729Z,53.34
2023-03-10T12:46:41.817Z,53.32
2023-03-10T12:49:30.419Z,53.33
2023-03-10T12:52:06.575Z,53.03
2023-03-10T12:55:01.394Z,52.51
2023-03-10T12:57:47.095Z,52.11
2023-03-10T13:00:20.050Z,51.95
2023-03-10T13:03:04.595Z,52.10
2023-03-10T13:05:34.580Z,51.50
2023-03-10T13:08:41.918Z,51.49
2023-03-10T13:11:17.845Z,51.78
2023-03-10T13:14:02.608Z,52.17
2023-03-10T13:16:29.684Z,52.31
2023-03-10T13:19:00.702Z,52.62
2023-03-10T13:21:32.402Z,53.13
2023-03-10T13:24:03.221Z,53.64
2023-03-10T13:26:30.093Z,54.40
2023-03-10T13:28:59.634Z,55.10
2023-03-10T13:31:33.226Z,55.16
2023-03-10T13:34:13.842Z,55.35
2023-03-10T13:36:41.824Z,55.85
2023-03-10T13:39:12.780Z,56.33
2023-03-10T13:41:40.191Z,56.82
2023-03-10T13:44:15.896Z,57.07
2023-03-10T13:46:49.699Z,56.90
2023-03-10T13:49:17.576Z,56.81
2023-03-10T13:51:56.115Z,56.93
2023-03-10T13:54:29.146Z,56.59
2023-03-10T13:57:08.340Z,56.96
2023-03-10T13:59:35.017Z,57.57
2023-03-10T14:02:01.682Z,58.02
2023-03-10T14:04:51.760Z,58.48
2023-03-10T14:07:23.578Z,58.88
2023-03-10T14:10:03.074Z,59.06
2023-03-10T14:12:37.193Z,59.42
2023-03-10T14:15:14.632Z,59.82
2023-03-10T14:17:42.575Z,60.14
2023-03-10T14:20:33.270Z,60.57
2023-03-10T14:23:25.286Z,61.02
2023-03-10T14:25:53.573Z,61.43
2023-03-10T14:28:25.671Z,61.86
2023-03-10T14:30:52.421Z,61.98
2023-03-10T14:33:20.170Z,62.07
2023-03-10T14:35:46.830Z,62.59
2023-03-10T14:38:13.821Z,62.91
2023-03-10T14:40:47.278Z,63.15
2023-03-10T14:43:20.021Z,63.74
2023-03-10T14:45:47.956Z,64.11
2023-03-10T14:48:18.543Z,64.52
2023-03-10T14:50:45.832Z,64.79
2023-03-10T14:53:15.685Z,65.08
2023-03-10T14:55:43.151Z,65.48
2023-03-10T14:58:20.472Z,65.60
2023-03-10T15:00:47.304Z,65.58
2023-03-10T15:03:14.716Z,66.08
2023-03-10T15:05:48.572Z,66.48
2023-03-10T15:08:19.008Z,66.61
2023-03-10T15:10:49.904Z,67.07
2023-03-10T15:13:18.032Z,67.23
2023-03-10T15:15:45.850Z,67.57
2023-03-10T15:18:14.416Z,67.77
2023-03-10T15:20:42.470Z,67.97
2023-03-10T15:23:16.057Z,68.22
2023-03-10T15:25:46.000Z,68.36
2023-03-10T15:28:13.220Z,68.73
2023-03-10T15:30:40.519Z,68.99
2023-03-10T15:33:07.517Z,69.33
2023-03-10T15:35:35.029Z,69.73
2023-03-10T15:38:02.133Z,70.20
2023-03-10T15:40:30.627Z,70.55
2023-03-10T15:42:57.761Z,71.06
2023-03-10T15:45:25.524Z,71.21
2023-03-10T15:47:52.328Z,71.65
2023-03-10T15:50:20.064Z,72.07
2023-03-10T15:52:51.568Z,72.36
2023-03-10T15:55:18.754Z,72.86
2023-03-10T15:57:47.726Z,73.01
2023-03-10T16:00:16.404Z,73.32
2023-03-10T16:02:44.517Z,73.80
2023-03-10T16:05:11.398Z,74.22
2023-03-10T16:07:38.293Z,74.61
2023-03-10T16:10:05.749Z,74.88
2023-03-10T16:12:32.596Z,75.25
2023-03-10T16:15:01.928Z,75.63
2023-03-10T16:17:29.302Z,76.00
2023-03-10T16:19:56.248Z,76.69
2023-03-10T16:22:22.810Z,77.02
2023-03-10T16:24:49.465Z,77.64
2023-03-10T16:27:19.455Z,78.23
2023-03-10T16:29:46.290Z,78.63
2023-03-10T16:32:14.419Z,79.14
2023-03-10T16:34:42.356Z,80.12
2023-03-10T16:37:09.336Z,80.46
2023-03-10T16:39:36.805Z,81.21
2023-03-10T16:42:05.639Z,81.75
2023-03-10T16:44:32.347Z,82.30
2023-03-10T16:46:58.979Z,83.04
2023-03-10T16:49:25.692Z,83.58
2023-03-10T16:51:52.330Z,83.93
2023-03-10T16:54:23.256Z,84.58
2023-03-10T16:56:52.161Z,85.08
2023-03-10T16:59:20.926Z,85.54
2023-03-10T17:01:48.435Z,85.66
2023-03-10T17:04:15.344Z,86.16
2023-03-10T17:06:42.379Z,86.37
2023-03-10T17:09:10.722Z,86.75
2023-03-10T17:11:40.066Z,86.98
2023-03-10T17:14:14.438Z,87.23
2023-03-10T17:16:42.871Z,87.62
2023-03-10T17:19:14.761Z,87.92
2023-03-10T17:21:48.640Z,88.26
2023-03-10T17:24:18.511Z,88.35
2023-03-10T17:26:45.772Z,88.62
2023-03-10T17:29:12.904Z,88.76
2023-03-10T17:31:48.293Z,88.86
2023-03-10T17:34:15.184Z,88.86
2023-03-10T17:36:42.176Z,89.17
2023-03-10T17:39:15.506Z,89.08
2023-03-10T17:41:42.274Z,89.17
2023-03-10T17:44:10.918Z,89.14
2023-03-10T17:46:40.365Z,89.29
2023-03-10T17:49:10.588Z,89.40
2023-03-10T17:51:39.148Z,89.32
2023-03-10T17:54:07.222Z,89.44
2023-03-10T17:56:34.665Z,89.72
2023-03-10T17:59:01.249Z,89.94
2023-03-10T18:01:28.932Z,89.99
2023-03-10T18:03:56.738Z,90.18
2023-03-10T18:06:25.459Z,90.49
2023-03-10T18:08:55.982Z,90.77
2023-03-10T18:11:23.923Z,91.15
2023-03-10T18:13:50.859Z,91.71
2023-03-10T18:16:23.426Z,92.09
2023-03-10T18:18:50.104Z,92.25
2023-03-10T18:21:17.538Z,92.86
2023-03-10T18:23:47.840Z,93.23
2023-03-10T18:26:19.492Z,93.56
2023-03-10T18:28:46.252Z,93.77
2023-03-10T18:31:33.960Z,94.14
2023-03-10T18:34:03.289Z,94.40
2023-03-10T18:36:30.333Z,94.73
2023-03-10T18:39:01.809Z,95.25
2023-03-10T18:41:31.285Z,95.47
2023-03-10T18:43:59.432Z,95.77
2023-03-10T18:46:26.537Z,96.31
2023-03-10T18:48:55.282Z,96.61
2023-03-10T18:51:25.983Z,96.88
2023-03-10T18:53:52.998Z,97.29
2023-03-10T18:56:28.416Z,97.67
2023-03-10T18:58:55.664Z,97.95
2023-03-10T19:01:22.372Z,98.40
2023-03-10T19:03:49.365Z,98.53
2023-03-10T19:06:16.305Z,98.77
2023-03-10T19:08:44.076Z,99.13
2023-03-10T19:11:11.529Z,99.58
2023-03-10T19:13:43.641Z,99.94
2023-03-10T19:16:11.442Z,100.00
2023-03-10T19:18:38.984Z,100.00
2023-03-10T19:21:06.346Z,100.00
2023-03-10T19:23:34.304Z,100.00
2023-03-10T19:26:01.608Z,100.00
2023-03-10T19:28:29.231Z,100.00
2023-03-10T19:30:55.953Z,100.00
2023-03-10T19:33:24.706Z,100.00
2023-03-10T19:36:00.513Z,100.00
2023-03-10T19:38:27.685Z,100.00
2023-03-10T19:40:54.375Z,100.00
2023-03-10T19:43:21.602Z,100.00
2023-03-10T19:45:48.269Z,100.00
2023-03-10T19:48:14.942Z,100.00
2023-03-10T19:50:42.009Z,100.00
2023-03-10T19:53:08.961Z,100.00
2023-03-10T19:55:37.600Z,100.00
2023-03-10T19:58:04.461Z,100.00
2023-03-10T20:00:35.407Z,100.00
2023-03-10T20:03:02.323Z,100.00
2023-03-10T20:05:29.332Z,100.00
2023-03-10T20:07:56.254Z,100.00
2023-03-10T20:10:23.043Z,100.00
2023-03-10T20:12:52.846Z,100.00
2023-03-10T20:15:22.068Z,100.00
2023-03-10T20:17:50.964Z,100.00
2023-03-10T20:20:19.674Z,100.00
2023-03-10T20:22:48.609Z,100.00
2023-03-10T20:25:17.389Z,100.00
2023-03-10T20:27:45.110Z,100.00
2023-03-10T20:30:15.067Z,100.00
2023-03-10T20:32:42.072Z,100.00
2023-03-10T20:35:08.822Z,100.00
2023-03-10T20:37:37.864Z,100.00
2023-03-10T20:40:09.358Z,100.00
2023-03-10T20:42:36.516Z,100.00
2023-03-10T20:45:04.356Z,100.00
2023-03-10T20:47:33.363Z,100.00
2023-03-10T20:50:00.523Z,100.00
2023-03-10T20:52:27.199Z,100.00
2023-03-10T20:54:53.910Z,100.00
2023-03-10T20:57:20.839Z,100.00
2023-03-10T20:59:48.111Z,100.00
2023-03-10T21:02:15.177Z,100.00
2023-03-10T21:04:42.261Z,100.00
2023-03-10T21:07:09.208Z,100.00
2023-03-10T21:09:36.981Z,100.00
2023-03-10T21:12:03.841Z,100.00
2023-03-10T21:14:31.521Z,100.00
2023-03-10T21:16:59.259Z,100.00
2023-03-10T21:19:29.321Z,100.00
2023-03-10T21:21:56.010Z,100.00
2023-03-10T21:24:23.398Z,100.00
2023-03-10T21:26:51.143Z,100.00
2023-03-10T21:29:17.742Z,100.00
2023-03-10T21:31:49.310Z,100.00
2023-03-10T21:34:16.137Z,100.00
2023-03-10T21:36:42.833Z,100.00
2023-03-10T21:39:09.503Z,100.00
2023-03-10T21:41:36.551Z,100.00
2023-03-10T21:44:03.532Z,100.00
2023-03-10T21:46:30.782Z,100.00
2023-03-10T21:48:57.413Z,100.00
2023-03-10T21:51:24.510Z,100.00
2023-03-10T21:53:54.090Z,100.00
2023-03-10T21:56:22.159Z,100.00
2023-03-10T21:58:49.251Z,100.00
2023-03-10T22:01:17.702Z,100.00
2023-03-10T22:03:44.932Z,100.00
2023-03-10T22:06:11.907Z,100.00
2023-03-10T22:08:38.582Z,100.00
2023-03-10T22:11:06.767Z,100.00
2023-03-10T22:13:35.639Z,100.00
2023-03-10T22:16:03.622Z,100.00
2023-03-10T22:18:32.734Z,100.00
2023-03-10T22:20:59.588Z,100.00
2023-03-10T22:23:26.435Z,100.00
2023-03-10T22:25:55.103Z,100.00
2023-03-10T22:28:22.201Z,100.00
2023-03-10T22:30:53.098Z,100.00
2023-03-10T22:33:20.320Z,100.00
2023-03-10T22:35:51.707Z,100.00
2023-03-10T22:38:19.812Z,100.00
2023-03-10T22:40:46.985Z,100.00
2023-03-10T22:43:14.292Z,100.00
2023-03-10T22:45:41.310Z,100.00
2023-03-10T22:48:10.514Z,100.00
2023-03-10T22:50:43.066Z,100.00
2023-03-10T22:53:13.341Z,100.00
2023-03-10T22:55:41.970Z,100.00
2023-03-10T22:58:10.418Z,100.00
2023-03-10T23:00:37.811Z,100.00
2023-03-10T23:03:05.196Z,100.00
2023-03-10T23:05:32.444Z,100.00
2023-03-10T23:08:05.133Z,100.00
2023-03-10T23:10:33.964Z,100.00
2023-03-10T23:13:03.138Z,100.00
2023-03-10T23:15:32.899Z,100.00
2023-03-10T23:17:59.863Z,100.00
2023-03-10T23:20:28.790Z,100.00
2023-03-10T23:22:58.020Z,100.00
2023-03-10T23:25:35.795Z,100.00
2023-03-10T23:28:02.971Z,100.00
2023-03-10T23:30:29.895Z,100.00
2023-03-10T23:32:56.646Z,100.00
2023-03-10T23:35:25.798Z,100.00
2023-03-10T23:37:52.827Z,100.00
2023-03-10T23:40:20.505Z,100.00
2023-03-10T23:42:47.389Z,100.00
2023-03-10T23:45:15.947Z,100.00
2023-03-10T23:47:43.376Z,100.00
2023-03-10T23:50:33.981Z,100.00
2023-03-10T23:53:03.124Z,100.00
2023-03-10T23:55:31.806Z,100.00
2023-03-10T23:57:59.225Z,100.00
